Airfield :
LOGIN :

Register | Disclaimer

   EN    FR    IT 

 










Legend :    VFR   Marginal VFR   IFR   Intensive IFR   Very Intensive IFR
Visi :
Ceiling :
>= 8 km
>= 3000ft
5 to 8 km
1000 to 3000 ft
1500m to 5 km
500 to 1000 ft
800 to 1500m
200 to 500 ft
< 800m
< 200 ft
Symbols :   Thunderstorms  Fog  Heavy snow  Heavy precipitations  Wind > 20 kt
SIGMETs :     Misc.  Thunderstorms  Icing  Turbulence  Mountain Waves  Volcanic Ashes







- Airport Elevation : -11 ft
- IATA code : AMS


EHAM - Amsterdam Schiphol

CURRENT METAR :
  • 230855Z 21030G41KT 9999 -RA BKN022 13/09 Q0994 NOSIG

EXPIRED METARs :
  • 230825Z 20025G35KT 9999 -SHRA FEW030CB BKN032 14/08 Q0993 TEMPO 7000
  • 230755Z 19022G32KT 160V220 9999 BKN035 13/07 Q0993 NOSIG
  • 230725Z 19024G34KT 160V220 9999 -RA SCT037 13/07 Q0993 NOSIG
  • 230655Z 19020G30KT 150V210 9999 BKN040 13/06 Q0993 NOSIG
  • 230625Z 17015KT 9999 BKN042 12/06 Q0993 NOSIG

TAF TAF EHAM
Valid from the 23 at 06:00 until the 24 at 12:00 UTC


230447Z 2306/2412 18024G37KT 9999 SCT020 BKN035
TEMPO 2308/2313 6000 SHRA RA SCT015CB BKN018
BECMG 2310/2313 25018G28KT FEW025
BECMG 2314/2317 23013KT
BECMG 2321/2324 19005KT
BECMG 2402/2404 6000 -RA SCT015 BKN030
TEMPO 2403/2412 4000 RA SCT010 BKN015
No reported NOTAMs for that airfield.



MET'MAP, your aeronautical weather chart ! - Copyright ORBIFLY December 2007 - Disclaimer

ORBIFLY MET'MAP TEAM :

Programming & Development : Alexandra Zaïnal
Concept & Development : Baudouin d'Aumeries
Co-Development & Prog : Marc-Olivier Méhu
Technical & hardware support : Manuel Goepfert

Contact : metmap@orbifly.com




SOURCES & CREDITS :

   NOAA